Decoded Metar for UTDT ( in ) (IATA:) | Meteo·Mobile Aviation Weather
aviador You're here:

UTDT Decoded Metar

in
Report Time2019-07-24 04:00:00
UTC Time2019-07-24 04:16:40
Flight Rules vfr VFR
Wind240° at 4 kt
W.Decomp.*RWY 17: 1.4 kt HW 3.8 kt RCW
Visibility9999 m
Phenomena:N/A
Clouds:N/A
Expected CloudBase > 7,600 ft AGL from Temp-Dew spread
CeilingNone
Temp34°C
Dew Point15°C (32% RH)
Heat Index33.6°C
QNH1001 hPa
Raw Report
METAR UTDT 240400Z 24002MPS 9999 NSC 34/15 Q1001 R35/CLRD70 RMK
QFE712/0949=

Extra information for UTDT:More info

Social comments